createdAt,value
2019-01-31T00:03:01.988Z,1.67
2019-01-31T00:06:31.028Z,1.87
2019-01-31T00:09:37.150Z,1.73
2019-01-31T00:12:43.107Z,1.47
2019-01-31T00:15:59.271Z,1.77
2019-01-31T00:18:40.214Z,1.50
2019-01-31T00:21:48.175Z,1.83
2019-01-31T00:24:53.380Z,1.43
2019-01-31T00:28:03.672Z,1.43
2019-01-31T00:31:22.341Z,1.60
2019-01-31T00:34:23.044Z,1.43
2019-01-31T00:37:22.800Z,1.60
2019-01-31T00:40:28.569Z,1.63
2019-01-31T00:44:07.004Z,1.50
2019-01-31T00:47:37.791Z,1.90
2019-01-31T00:51:01.313Z,1.47
2019-01-31T00:54:20.585Z,1.90
2019-01-31T00:57:46.390Z,1.90
2019-01-31T01:00:34.884Z,2.00
2019-01-31T01:04:02.122Z,2.50
2019-01-31T01:07:19.020Z,2.30
2019-01-31T01:10:50.715Z,2.20
2019-01-31T01:14:00.451Z,2.50
2019-01-31T01:16:52.597Z,2.13
2019-01-31T01:20:01.835Z,2.10
2019-01-31T01:22:36.624Z,2.40
2019-01-31T01:26:07.001Z,2.30
2019-01-31T01:29:25.079Z,3.20
2019-01-31T01:32:58.076Z,2.83
2019-01-31T01:36:09.457Z,2.77
2019-01-31T01:39:53.774Z,3.27
2019-01-31T01:43:24.549Z,3.07
2019-01-31T01:46:20.909Z,3.27
2019-01-31T01:49:14.696Z,2.87
2019-01-31T01:52:56.545Z,3.30
2019-01-31T01:56:24.287Z,2.90
2019-01-31T01:59:22.487Z,3.43
2019-01-31T02:02:43.516Z,2.60
2019-01-31T02:05:45.719Z,3.10
2019-01-31T02:09:30.346Z,2.47
2019-01-31T02:13:13.271Z,2.50
2019-01-31T02:16:25.814Z,2.70
2019-01-31T02:19:58.991Z,2.70
2019-01-31T02:23:37.711Z,2.90
2019-01-31T02:27:06.631Z,3.63
2019-01-31T02:30:38.047Z,3.53
2019-01-31T02:33:57.102Z,4.10
2019-01-31T02:37:08.974Z,3.00
2019-01-31T02:40:16.233Z,3.23
2019-01-31T02:43:21.573Z,2.47
2019-01-31T02:46:59.614Z,2.10
2019-01-31T02:50:13.730Z,2.77
2019-01-31T02:53:14.139Z,3.00
2019-01-31T02:56:19.811Z,2.80
2019-01-31T02:59:37.787Z,2.87
2019-01-31T03:02:30.061Z,2.90
2019-01-31T03:05:52.939Z,3.53
2019-01-31T03:09:20.155Z,4.00
2019-01-31T03:12:18.858Z,4.10
2019-01-31T03:14:53.261Z,3.67
2019-01-31T03:18:07.516Z,3.73
2019-01-31T03:21:10.394Z,3.70
2019-01-31T03:24:23.824Z,3.90
2019-01-31T03:27:41.513Z,3.97
2019-01-31T03:31:13.541Z,3.60
2019-01-31T03:34:08.481Z,3.90
2019-01-31T03:37:08.379Z,3.70
2019-01-31T03:40:06.828Z,3.87
2019-01-31T03:43:07.068Z,3.77
2019-01-31T03:46:13.145Z,3.67
2019-01-31T03:49:31.715Z,2.87
2019-01-31T03:52:35.311Z,3.20
2019-01-31T03:56:23.718Z,3.20
2019-01-31T03:59:16.784Z,2.90
2019-01-31T04:02:30.407Z,3.10
2019-01-31T04:05:24.089Z,3.63
2019-01-31T04:07:53.524Z,3.90
2019-01-31T04:10:22.835Z,5.20
2019-01-31T04:12:51.503Z,4.33
2019-01-31T04:15:20.405Z,3.57
2019-01-31T04:17:48.516Z,3.67
2019-01-31T04:20:17.249Z,3.10
2019-01-31T04:22:45.949Z,3.30
2019-01-31T04:25:15.161Z,3.60
2019-01-31T04:27:43.863Z,2.93
2019-01-31T04:30:17.407Z,3.30
2019-01-31T04:32:46.559Z,2.33
2019-01-31T04:35:15.094Z,3.40
2019-01-31T04:37:43.702Z,4.10
2019-01-31T04:40:11.643Z,3.70
2019-01-31T04:42:40.332Z,3.60
2019-01-31T04:45:08.620Z,2.63
2019-01-31T04:47:37.508Z,2.03
2019-01-31T04:50:07.714Z,2.10
2019-01-31T04:52:36.370Z,2.63
2019-01-31T04:55:04.910Z,2.07
2019-01-31T04:57:33.358Z,1.93
2019-01-31T05:00:01.761Z,3.13
2019-01-31T05:02:31.479Z,3.43
2019-01-31T05:05:00.929Z,2.90
2019-01-31T05:07:29.197Z,2.77
2019-01-31T05:09:57.415Z,3.10
2019-01-31T05:12:25.719Z,3.60
2019-01-31T05:14:54.237Z,3.60
2019-01-31T05:17:22.569Z,4.23
2019-01-31T05:19:51.294Z,3.10
2019-01-31T05:22:20.527Z,1.70
2019-01-31T05:24:48.518Z,1.80
2019-01-31T05:27:16.962Z,0.87
2019-01-31T05:29:45.605Z,1.47
2019-01-31T05:32:14.087Z,1.80
2019-01-31T05:34:43.147Z,1.47
2019-01-31T05:37:11.216Z,1.60
2019-01-31T05:39:39.521Z,1.50
2019-01-31T05:42:09.175Z,2.00
2019-01-31T05:44:37.317Z,1.57
2019-01-31T05:47:05.616Z,2.00
2019-01-31T05:49:34.679Z,1.70
2019-01-31T05:52:02.867Z,2.00
2019-01-31T05:54:31.721Z,2.10
2019-01-31T05:57:00.172Z,2.20
2019-01-31T05:59:28.874Z,2.10
2019-01-31T06:01:57.265Z,1.77
2019-01-31T06:04:25.523Z,1.90
2019-01-31T06:06:53.498Z,2.27
2019-01-31T06:09:22.165Z,2.10
2019-01-31T06:11:50.630Z,2.20
2019-01-31T06:14:18.686Z,2.23
2019-01-31T06:16:46.749Z,2.03
2019-01-31T06:19:15.298Z,1.93
2019-01-31T06:21:43.375Z,2.03
2019-01-31T06:24:12.490Z,2.70
2019-01-31T06:26:40.794Z,1.90
2019-01-31T06:29:09.535Z,1.90
2019-01-31T06:31:37.759Z,2.10
2019-01-31T06:34:05.945Z,2.03
2019-01-31T06:36:34.452Z,1.93
2019-01-31T06:39:05.345Z,2.03
2019-01-31T06:41:34.216Z,1.90
2019-01-31T06:44:03.358Z,1.80
2019-01-31T06:46:32.076Z,2.03
2019-01-31T06:49:01.136Z,1.70
2019-01-31T06:51:29.657Z,1.90
2019-01-31T06:53:58.190Z,1.80
2019-01-31T06:56:26.680Z,1.90
2019-01-31T06:58:55.557Z,2.00
2019-01-31T07:01:23.361Z,1.40
2019-01-31T07:03:52.436Z,2.00
2019-01-31T07:06:21.095Z,1.90
2019-01-31T07:08:49.296Z,1.70
2019-01-31T07:11:29.312Z,2.00
2019-01-31T07:13:48.602Z,2.10
2019-01-31T07:16:17.933Z,2.53
2019-01-31T07:18:46.098Z,1.80
2019-01-31T07:21:18.785Z,2.03
2019-01-31T07:23:47.004Z,2.00
2019-01-31T07:26:15.323Z,2.00
2019-01-31T07:28:44.321Z,1.87
2019-01-31T07:31:12.701Z,1.77
2019-01-31T07:33:41.671Z,1.90
2019-01-31T07:36:09.857Z,1.97
2019-01-31T07:39:05.181Z,1.90
2019-01-31T07:41:41.011Z,1.03
2019-01-31T07:44:40.936Z,1.50
2019-01-31T07:47:09.802Z,1.47
2019-01-31T07:49:38.200Z,1.50
2019-01-31T07:52:06.968Z,1.50
2019-01-31T07:54:35.371Z,0.83
2019-01-31T07:57:03.593Z,1.60
2019-01-31T07:59:32.498Z,1.73
2019-01-31T08:02:00.982Z,1.80
2019-01-31T08:04:30.147Z,1.73
2019-01-31T08:06:58.304Z,1.70
2019-01-31T08:09:27.084Z,1.90
2019-01-31T08:11:55.799Z,1.87
2019-01-31T08:14:24.389Z,1.33
2019-01-31T08:16:53.326Z,1.57
2019-01-31T08:19:21.582Z,2.10
2019-01-31T08:21:50.541Z,1.97
2019-01-31T08:24:18.526Z,1.87
2019-01-31T08:26:48.398Z,1.70
2019-01-31T08:29:17.005Z,1.93
2019-01-31T08:31:45.945Z,1.80
2019-01-31T08:34:14.232Z,1.43
2019-01-31T08:36:43.383Z,1.70
2019-01-31T08:39:11.396Z,2.10
2019-01-31T08:41:41.523Z,1.50
2019-01-31T08:44:09.908Z,1.83
2019-01-31T08:46:38.424Z,1.33
2019-01-31T08:49:06.657Z,1.87
2019-01-31T08:51:35.035Z,1.40
2019-01-31T08:54:03.074Z,1.80
2019-01-31T08:56:31.592Z,1.50
2019-01-31T08:58:59.698Z,1.90
2019-01-31T09:01:28.585Z,1.33
2019-01-31T09:03:57.522Z,1.40
2019-01-31T09:06:26.083Z,1.70
2019-01-31T09:08:54.478Z,1.43
2019-01-31T09:11:22.690Z,1.30
2019-01-31T09:13:51.474Z,1.50
2019-01-31T09:16:19.733Z,1.10
2019-01-31T09:18:48.399Z,1.00
2019-01-31T09:21:36.076Z,1.27
2019-01-31T09:24:57.275Z,1.33
2019-01-31T09:28:02.483Z,1.90
2019-01-31T09:31:27.888Z,1.10
2019-01-31T09:34:33.783Z,1.60
2019-01-31T09:37:51.202Z,1.50
2019-01-31T09:40:58.496Z,1.60
2019-01-31T09:43:57.444Z,1.73
2019-01-31T09:46:54.844Z,1.70
2019-01-31T09:49:34.760Z,1.50
2019-01-31T09:52:23.216Z,1.50
2019-01-31T09:55:26.709Z,1.00
2019-01-31T09:58:44.070Z,1.10
2019-01-31T10:01:52.589Z,1.30
2019-01-31T10:05:04.395Z,1.60
2019-01-31T10:08:03.030Z,1.60
2019-01-31T10:11:01.095Z,1.70
2019-01-31T10:14:44.954Z,1.67
2019-01-31T10:17:53.819Z,1.70
2019-01-31T10:20:56.393Z,1.70
2019-01-31T10:24:19.253Z,2.00
2019-01-31T10:27:55.275Z,2.10
2019-01-31T10:31:02.063Z,2.10
2019-01-31T10:34:32.392Z,1.40
2019-01-31T10:37:58.017Z,1.40
2019-01-31T10:41:06.223Z,1.47
2019-01-31T10:44:00.739Z,1.37
2019-01-31T10:47:30.289Z,1.30
2019-01-31T10:51:10.455Z,1.33
2019-01-31T10:54:37.142Z,1.40
2019-01-31T10:58:01.915Z,1.60
2019-01-31T11:01:03.275Z,1.47
2019-01-31T11:04:11.178Z,1.30
2019-01-31T11:07:35.560Z,1.00
2019-01-31T11:10:52.942Z,1.10
2019-01-31T11:13:51.414Z,1.27
2019-01-31T11:17:19.517Z,1.30
2019-01-31T11:20:54.889Z,1.10
2019-01-31T11:24:07.912Z,1.30
2019-01-31T11:27:41.333Z,1.90
2019-01-31T11:30:51.265Z,1.30
2019-01-31T11:34:32.720Z,1.33
2019-01-31T11:37:40.946Z,1.30
2019-01-31T11:41:27.474Z,1.30
2019-01-31T11:44:59.192Z,1.10
2019-01-31T11:48:13.456Z,1.27
2019-01-31T11:52:19.304Z,1.10
2019-01-31T11:55:54.753Z,1.73
2019-01-31T11:59:02.390Z,0.90
2019-01-31T12:01:31.335Z,1.67
2019-01-31T12:04:09.776Z,1.57
2019-01-31T12:06:38.647Z,1.60
2019-01-31T12:09:14.175Z,1.20
2019-01-31T12:11:42.788Z,1.10
2019-01-31T12:14:13.392Z,1.10
2019-01-31T12:16:41.945Z,1.07
2019-01-31T12:19:09.889Z,0.90
2019-01-31T12:21:38.265Z,1.13
2019-01-31T12:24:16.189Z,0.90
2019-01-31T12:26:36.943Z,1.33
2019-01-31T12:29:06.351Z,1.00
2019-01-31T12:31:34.622Z,0.83
2019-01-31T12:34:02.993Z,0.90
2019-01-31T12:36:30.908Z,0.90
2019-01-31T12:38:59.524Z,0.90
2019-01-31T12:41:27.565Z,1.20
2019-01-31T12:43:55.543Z,0.80
2019-01-31T12:46:23.566Z,0.80
2019-01-31T12:48:52.342Z,0.80
2019-01-31T12:51:20.935Z,1.10
2019-01-31T12:53:49.995Z,0.80
2019-01-31T12:56:18.146Z,0.80
2019-01-31T12:58:46.382Z,0.87
2019-01-31T13:01:14.943Z,0.90
2019-01-31T13:03:43.783Z,1.07
2019-01-31T13:06:12.069Z,0.83
2019-01-31T13:08:40.876Z,1.00
2019-01-31T13:11:09.059Z,0.93
2019-01-31T13:13:45.951Z,0.93
2019-01-31T13:16:07.844Z,1.20
2019-01-31T13:18:36.152Z,1.00
2019-01-31T13:21:04.896Z,3.00
2019-01-31T13:23:33.513Z,2.60
2019-01-31T13:26:01.588Z,0.87
2019-01-31T13:28:31.797Z,4.57
2019-01-31T13:30:59.886Z,1.00
2019-01-31T13:33:28.438Z,2.07
2019-01-31T13:35:57.262Z,0.90
2019-01-31T13:38:26.198Z,0.90
2019-01-31T13:40:54.488Z,1.10
2019-01-31T13:43:23.351Z,2.20
2019-01-31T13:45:51.961Z,0.87
2019-01-31T13:48:20.369Z,1.50
2019-01-31T13:50:49.039Z,2.90
2019-01-31T13:53:17.811Z,0.97
2019-01-31T13:55:46.702Z,1.10
2019-01-31T13:58:15.147Z,2.27
2019-01-31T14:00:43.652Z,0.87
2019-01-31T14:03:12.648Z,0.80
2019-01-31T14:05:41.049Z,0.87
2019-01-31T14:08:09.514Z,0.70
2019-01-31T14:10:37.786Z,1.00
2019-01-31T14:13:05.809Z,4.60
2019-01-31T14:15:35.251Z,3.63
2019-01-31T14:18:03.814Z,2.80
2019-01-31T14:20:32.505Z,1.63
2019-01-31T14:23:01.732Z,1.20
2019-01-31T14:25:29.801Z,1.90
2019-01-31T14:27:57.872Z,1.23
2019-01-31T14:30:33.056Z,1.17
2019-01-31T14:33:02.350Z,1.43
2019-01-31T14:35:30.946Z,1.60
2019-01-31T14:37:59.092Z,1.47
2019-01-31T14:40:27.623Z,1.20
2019-01-31T14:42:56.171Z,1.30
2019-01-31T14:45:25.539Z,2.40
2019-01-31T14:47:55.908Z,1.73
2019-01-31T14:50:30.549Z,1.40
2019-01-31T14:52:58.759Z,1.60
2019-01-31T14:55:27.286Z,1.40
2019-01-31T14:57:55.852Z,1.40
2019-01-31T15:00:27.406Z,1.20
2019-01-31T15:02:56.820Z,1.37
2019-01-31T15:05:25.402Z,1.30
2019-01-31T15:07:54.146Z,1.23
2019-01-31T15:10:26.954Z,1.23
2019-01-31T15:12:55.040Z,1.30
2019-01-31T15:15:24.242Z,1.27
2019-01-31T15:17:53.299Z,1.27
2019-01-31T15:20:37.504Z,1.10
2019-01-31T15:23:02.957Z,1.03
2019-01-31T15:25:31.785Z,0.90
2019-01-31T15:28:00.660Z,1.40
2019-01-31T15:30:31.513Z,1.97
2019-01-31T15:33:03.044Z,1.80
2019-01-31T15:35:30.974Z,2.80
2019-01-31T15:37:59.432Z,1.53
2019-01-31T15:40:32.911Z,1.70
2019-01-31T15:43:01.571Z,1.10
2019-01-31T15:45:29.936Z,1.50
2019-01-31T15:47:57.868Z,1.40
2019-01-31T15:50:26.988Z,1.53
2019-01-31T15:52:55.751Z,1.67
2019-01-31T15:55:24.884Z,1.73
2019-01-31T15:57:53.345Z,1.83
2019-01-31T16:00:39.720Z,2.00
2019-01-31T16:03:11.084Z,2.10
2019-01-31T16:05:39.789Z,1.87
2019-01-31T16:08:08.608Z,2.13
2019-01-31T16:10:36.746Z,2.00
2019-01-31T16:13:05.975Z,2.53
2019-01-31T16:15:34.779Z,1.90
2019-01-31T16:18:04.018Z,1.73
2019-01-31T16:20:32.181Z,1.50
2019-01-31T16:23:01.323Z,1.70
2019-01-31T16:25:30.309Z,1.80
2019-01-31T16:27:58.393Z,1.80
2019-01-31T16:30:26.945Z,1.70
2019-01-31T16:32:55.294Z,1.70
2019-01-31T16:35:23.181Z,2.60
2019-01-31T16:37:52.279Z,1.70
2019-01-31T16:40:20.276Z,2.00
2019-01-31T16:42:49.069Z,3.10
2019-01-31T16:45:17.515Z,3.20
2019-01-31T16:47:46.149Z,15.27
2019-01-31T16:50:16.286Z,2.80
2019-01-31T16:52:44.260Z,2.37
2019-01-31T16:55:17.706Z,2.13
2019-01-31T16:57:46.784Z,2.30
2019-01-31T17:00:21.616Z,2.57
2019-01-31T17:02:50.256Z,2.77
2019-01-31T17:05:22.179Z,2.77
2019-01-31T17:07:51.528Z,2.93
2019-01-31T17:10:19.820Z,3.03
2019-01-31T17:12:48.077Z,3.43
2019-01-31T17:15:18.341Z,2.90
2019-01-31T17:17:47.996Z,3.10
2019-01-31T17:20:23.479Z,2.87
2019-01-31T17:22:51.980Z,2.70
2019-01-31T17:25:20.200Z,2.43
2019-01-31T17:27:49.143Z,2.90
2019-01-31T17:30:20.144Z,2.67
2019-01-31T17:32:48.068Z,2.80
2019-01-31T17:35:16.664Z,2.70
2019-01-31T17:37:45.320Z,2.70
2019-01-31T17:40:18.192Z,2.50
2019-01-31T17:42:47.020Z,2.57
2019-01-31T17:45:17.314Z,2.60
2019-01-31T17:47:45.419Z,2.30
2019-01-31T17:50:13.594Z,3.20
2019-01-31T17:52:42.173Z,3.07
2019-01-31T17:55:12.458Z,2.87
2019-01-31T17:57:41.104Z,2.93
2019-01-31T18:00:16.282Z,2.90
2019-01-31T18:02:45.607Z,2.57
2019-01-31T18:05:13.864Z,2.77
2019-01-31T18:07:42.851Z,3.23
2019-01-31T18:10:16.104Z,2.80
2019-01-31T18:12:44.392Z,2.73
2019-01-31T18:15:13.299Z,2.60
2019-01-31T18:17:41.753Z,3.30
2019-01-31T18:20:14.909Z,3.20
2019-01-31T18:22:43.502Z,3.40
2019-01-31T18:25:12.220Z,3.23
2019-01-31T18:27:40.940Z,3.27
2019-01-31T18:30:19.204Z,3.23
2019-01-31T18:32:48.002Z,3.33
2019-01-31T18:35:16.657Z,3.50
2019-01-31T18:37:45.106Z,3.63
2019-01-31T18:40:17.475Z,3.67
2019-01-31T18:42:46.048Z,3.57
2019-01-31T18:45:18.827Z,3.50
2019-01-31T18:47:47.514Z,3.67
2019-01-31T18:50:18.667Z,3.30
2019-01-31T18:52:47.301Z,3.20
2019-01-31T18:55:16.162Z,3.70
2019-01-31T18:57:45.162Z,3.40
2019-01-31T19:00:35.207Z,3.00
2019-01-31T19:03:06.657Z,2.90
2019-01-31T19:05:34.948Z,3.30
2019-01-31T19:08:05.607Z,2.57
2019-01-31T19:10:42.636Z,3.17
2019-01-31T19:13:04.677Z,3.50
2019-01-31T19:15:33.015Z,3.80
2019-01-31T19:18:06.060Z,2.93
2019-01-31T19:20:31.891Z,3.00
2019-01-31T19:23:01.313Z,2.67
2019-01-31T19:25:32.633Z,3.10
2019-01-31T19:28:00.738Z,3.33
2019-01-31T19:30:37.239Z,2.90
2019-01-31T19:33:06.606Z,3.13
2019-01-31T19:35:35.504Z,3.20
2019-01-31T19:38:05.915Z,3.13
2019-01-31T19:40:35.493Z,3.10
2019-01-31T19:43:04.225Z,3.20
2019-01-31T19:45:49.685Z,3.13
2019-01-31T19:48:18.193Z,3.10
2019-01-31T19:50:46.485Z,3.73
2019-01-31T19:53:14.921Z,3.30
2019-01-31T19:55:43.345Z,3.63
2019-01-31T19:58:11.564Z,4.60
2019-01-31T20:00:40.053Z,4.20
2019-01-31T20:03:08.342Z,3.93
2019-01-31T20:05:36.644Z,4.50
2019-01-31T20:08:08.191Z,3.40
2019-01-31T20:10:37.161Z,3.53
2019-01-31T20:13:05.554Z,3.50
2019-01-31T20:15:33.600Z,3.97
2019-01-31T20:18:02.285Z,3.70
2019-01-31T20:20:33.729Z,3.77
2019-01-31T20:23:02.534Z,3.93
2019-01-31T20:25:34.594Z,4.13
2019-01-31T20:28:03.865Z,8.77
2019-01-31T20:30:32.535Z,6.17
2019-01-31T20:33:01.961Z,4.90
2019-01-31T20:35:30.763Z,4.30
2019-01-31T20:37:59.867Z,3.60
2019-01-31T20:40:31.627Z,9.20
2019-01-31T20:43:00.257Z,4.20
2019-01-31T20:45:28.799Z,3.87
2019-01-31T20:47:56.983Z,4.57
2019-01-31T20:50:28.372Z,4.03
2019-01-31T20:52:56.959Z,4.33
2019-01-31T20:55:25.207Z,6.13
2019-01-31T20:57:53.698Z,6.77
2019-01-31T21:00:27.384Z,5.73
2019-01-31T21:02:56.104Z,4.27
2019-01-31T21:05:26.222Z,3.80
2019-01-31T21:07:55.590Z,3.63
2019-01-31T21:10:26.389Z,3.63
2019-01-31T21:12:54.322Z,3.50
2019-01-31T21:15:22.961Z,4.07
2019-01-31T21:17:51.329Z,4.60
2019-01-31T21:20:20.763Z,4.53
2019-01-31T21:22:49.952Z,4.27
2019-01-31T21:25:18.453Z,4.10
2019-01-31T21:27:47.068Z,4.33
2019-01-31T21:30:22.538Z,3.97
2019-01-31T21:32:50.541Z,4.40
2019-01-31T21:35:20.714Z,4.57
2019-01-31T21:37:48.680Z,4.13
2019-01-31T21:40:17.357Z,4.03
2019-01-31T21:42:45.892Z,4.37
2019-01-31T21:45:15.080Z,4.33
2019-01-31T21:47:43.166Z,4.40
2019-01-31T21:50:16.713Z,4.20
2019-01-31T21:52:45.634Z,4.50
2019-01-31T21:55:14.825Z,4.50
2019-01-31T21:57:43.038Z,4.10
2019-01-31T22:00:16.617Z,4.60
2019-01-31T22:02:49.487Z,4.60
2019-01-31T22:05:17.822Z,4.40
2019-01-31T22:07:45.990Z,4.13
2019-01-31T22:10:15.062Z,4.40
2019-01-31T22:12:44.424Z,4.30
2019-01-31T22:15:27.673Z,4.40
2019-01-31T22:17:59.777Z,4.20
2019-01-31T22:20:25.879Z,4.30
2019-01-31T22:22:54.472Z,4.20
2019-01-31T22:25:23.029Z,3.87
2019-01-31T22:27:51.271Z,4.40
2019-01-31T22:30:28.371Z,4.40
2019-01-31T22:32:57.528Z,4.13
2019-01-31T22:35:26.130Z,4.00
2019-01-31T22:37:54.917Z,4.17
2019-01-31T22:40:23.588Z,4.13
2019-01-31T22:42:51.953Z,4.23
2019-01-31T22:45:20.930Z,4.10
2019-01-31T22:47:48.992Z,4.57
2019-01-31T22:50:19.253Z,4.10
2019-01-31T22:52:47.500Z,4.37
2019-01-31T22:55:18.310Z,4.10
2019-01-31T22:57:46.659Z,4.23
2019-01-31T23:00:45.538Z,4.17
2019-01-31T23:03:14.622Z,3.70
2019-01-31T23:05:43.217Z,3.93
2019-01-31T23:08:11.627Z,3.50
2019-01-31T23:10:40.542Z,3.60
2019-01-31T23:13:08.924Z,3.80
2019-01-31T23:15:37.930Z,3.30
2019-01-31T23:18:06.264Z,3.50
2019-01-31T23:20:34.769Z,3.50
2019-01-31T23:23:03.002Z,3.30
2019-01-31T23:25:39.877Z,3.13
2019-01-31T23:28:01.561Z,3.07
2019-01-31T23:30:30.367Z,2.90
2019-01-31T23:32:59.408Z,3.17
2019-01-31T23:35:28.918Z,3.10
2019-01-31T23:37:57.732Z,3.40
2019-01-31T23:40:26.786Z,3.80
2019-01-31T23:42:56.034Z,3.83
2019-01-31T23:45:24.314Z,3.40
2019-01-31T23:47:52.862Z,3.20
2019-01-31T23:50:21.101Z,3.23
2019-01-31T23:52:49.587Z,3.10
2019-01-31T23:55:17.933Z,3.43
2019-01-31T23:57:46.287Z,2.90
